This is the latest recevied weather packets stored in our database for station/object N3TTT-13. If no packets are shown the sender has not sent any weather packets the latest 10 day(s).
| Time | Temp. | Humidity | Pressure | Rain* | Wind** | Luminosity | Snow |
|---|---|---|---|---|---|---|---|
| 1777910677 | 22.22° C | 38% | 1014.2 hPa | 0 mm | - | 676 W/m² | - |
| 1777910373 | 21.67° C | 40% | 1013.9 hPa | 0 mm | - | 640 W/m² | - |
| 1777910069 | 21.67° C | 42% | 1014.3 hPa | 0 mm | - | 671 W/m² | - |
| 1777909767 | 22.22° C | 39% | 1014.4 hPa | 0 mm | - | 727 W/m² | - |
| 1777909463 | 21.67° C | 42% | 1014.3 hPa | 0 mm | - | 760 W/m² | - |
| 1777909161 | 21.67° C | 44% | 1014.4 hPa | 0 mm | - | 769 W/m² | - |
| 1777908859 | 21.67° C | 44% | 1014.3 hPa | 0 mm | - | 729 W/m² | - |
| 1777908556 | 21.11° C | 47% | 1014.5 hPa | 0 mm | - | 734 W/m² | - |
| 1777908253 | 21.67° C | 45% | 1014.5 hPa | 0 mm | - | 767 W/m² | - |
| 1777907949 | 21.67° C | 46% | 1014.4 hPa | 0 mm | - | 772 W/m² | - |
| 1777907644 | 21.67° C | 45% | 1014.4 hPa | 0 mm | - | 772 W/m² | - |
| 1777907340 | 20.56° C | 48% | 1014.5 hPa | 0 mm | - | 769 W/m² | - |
| 1777907037 | 20.56° C | 45% | 1014.5 hPa | 0 mm | - | 751 W/m² | - |
| 1777906735 | 20° C | 47% | 1014.6 hPa | 0 mm | - | 792 W/m² | - |
| 1777906431 | 20° C | 48% | 1014.8 hPa | 0 mm | - | 770 W/m² | - |
| 1777906128 | 21.11° C | 46% | 1014.7 hPa | 0 mm | - | 805 W/m² | - |
| 1777905824 | 20° C | 47% | 1014.7 hPa | 0 mm | - | 810 W/m² | - |
| 1777905521 | 20.56° C | 50% | 1014.7 hPa | 0 mm | - | 807 W/m² | - |
| 1777905218 | 20° C | 52% | 1014.7 hPa | 0 mm | - | 751 W/m² | - |
| 1777904916 | 19.44° C | 52% | 1014.6 hPa | 0 mm | - | 737 W/m² | - |
| 1777904613 | 18.89° C | 52% | 1014.7 hPa | 0 mm | - | 734 W/m² | - |
| 1777904310 | 20° C | 50% | 1014.9 hPa | 0 mm | - | 767 W/m² | - |
| 1777904007 | 19.44° C | 53% | 1014.8 hPa | 0 mm | - | 721 W/m² | - |
| 1777903704 | 18.89° C | 53% | 1014.7 hPa | 0 mm | - | 682 W/m² | - |
| 1777903399 | 18.33° C | 54% | 1014.9 hPa | 0 mm | - | 657 W/m² | - |
* Rain latest hour (hover to see other rain measurements)
** Current wind speed in m/s (hover to see current wind gust speed)